sensor_id;sensor_type;location;lat;lon;timestamp;P1;durP1;ratioP1;P2;durP2;ratioP2
73650;SDS011;61944;52.538;6.108;2023-12-14T05:48:04;9.10;;;5.72;;
73650;SDS011;61944;52.538;6.108;2023-12-14T05:50:30;11.82;;;6.30;;
73650;SDS011;61944;52.538;6.108;2023-12-14T05:52:56;9.77;;;5.00;;
73650;SDS011;61944;52.538;6.108;2023-12-14T05:55:21;8.77;;;5.57;;
73650;SDS011;61944;52.538;6.108;2023-12-14T05:57:47;10.75;;;5.93;;
73650;SDS011;61944;52.538;6.108;2023-12-14T06:00:13;10.35;;;6.68;;
73650;SDS011;61944;52.538;6.108;2023-12-14T06:02:39;10.98;;;5.88;;
73650;SDS011;61944;52.538;6.108;2023-12-14T06:05:05;11.70;;;5.65;;
73650;SDS011;61944;52.538;6.108;2023-12-14T06:07:32;10.55;;;6.18;;
73650;SDS011;61944;52.538;6.108;2023-12-14T06:09:57;11.82;;;6.72;;
73650;SDS011;61944;52.538;6.108;2023-12-14T06:12:23;11.25;;;5.85;;
73650;SDS011;61944;52.538;6.108;2023-12-14T06:14:48;11.73;;;6.30;;
73650;SDS011;61944;52.538;6.108;2023-12-14T06:17:15;10.55;;;6.18;;
73650;SDS011;61944;52.538;6.108;2023-12-14T06:19:40;10.10;;;6.60;;
73650;SDS011;61944;52.538;6.108;2023-12-14T06:22:05;9.32;;;5.00;;
73650;SDS011;61944;52.538;6.108;2023-12-14T06:24:31;13.60;;;8.02;;
73650;SDS011;61944;52.538;6.108;2023-12-14T06:26:56;10.40;;;6.05;;
73650;SDS011;61944;52.538;6.108;2023-12-14T06:29:21;9.77;;;6.18;;
73650;SDS011;61944;52.538;6.108;2023-12-14T06:31:47;11.93;;;6.65;;
73650;SDS011;61944;52.538;6.108;2023-12-14T06:34:12;11.30;;;6.20;;
73650;SDS011;61944;52.538;6.108;2023-12-14T06:36:43;11.43;;;7.47;;
73650;SDS011;61944;52.538;6.108;2023-12-14T06:39:09;11.32;;;7.10;;
73650;SDS011;61944;52.538;6.108;2023-12-14T06:41:35;9.32;;;6.60;;
73650;SDS011;61944;52.538;6.108;2023-12-14T06:44:01;13.73;;;7.15;;
73650;SDS011;61944;52.538;6.108;2023-12-14T06:46:26;10.85;;;7.05;;
73650;SDS011;61944;52.538;6.108;2023-12-14T06:48:52;10.98;;;6.95;;
73650;SDS011;61944;52.538;6.108;2023-12-14T06:51:18;11.77;;;6.05;;
73650;SDS011;61944;52.538;6.108;2023-12-14T06:53:44;12.52;;;7.32;;
73650;SDS011;61944;52.538;6.108;2023-12-14T06:56:10;12.65;;;7.25;;
73650;SDS011;61944;52.538;6.108;2023-12-14T06:58:37;13.93;;;7.57;;
73650;SDS011;61944;52.538;6.108;2023-12-14T07:01:03;13.82;;;6.85;;
73650;SDS011;61944;52.538;6.108;2023-12-14T07:03:29;13.93;;;7.40;;
73650;SDS011;61944;52.538;6.108;2023-12-14T07:05:54;10.60;;;6.13;;
73650;SDS011;61944;52.538;6.108;2023-12-14T07:08:19;12.90;;;7.22;;
73650;SDS011;61944;52.538;6.108;2023-12-14T07:10:45;13.02;;;6.70;;
73650;SDS011;61944;52.538;6.108;2023-12-14T07:13:10;10.57;;;6.28;;
73650;SDS011;61944;52.538;6.108;2023-12-14T07:15:36;10.02;;;6.35;;
73650;SDS011;61944;52.538;6.108;2023-12-14T07:18:01;9.60;;;6.50;;
73650;SDS011;61944;52.538;6.108;2023-12-14T07:20:27;9.27;;;6.53;;
73650;SDS011;61944;52.538;6.108;2023-12-14T07:22:52;12.02;;;7.07;;
73650;SDS011;61944;52.538;6.108;2023-12-14T07:25:18;11.30;;;6.50;;
73650;SDS011;61944;52.538;6.108;2023-12-14T07:27:43;10.75;;;6.85;;
73650;SDS011;61944;52.538;6.108;2023-12-14T07:30:09;10.95;;;6.22;;
73650;SDS011;61944;52.538;6.108;2023-12-14T07:32:35;12.48;;;6.82;;
73650;SDS011;61944;52.538;6.108;2023-12-14T07:35:00;12.00;;;7.15;;
73650;SDS011;61944;52.538;6.108;2023-12-14T07:37:25;9.75;;;6.10;;
73650;SDS011;61944;52.538;6.108;2023-12-14T07:39:51;10.75;;;6.05;;
73650;SDS011;61944;52.538;6.108;2023-12-14T07:42:16;10.70;;;6.32;;
73650;SDS011;61944;52.538;6.108;2023-12-14T07:44:44;8.27;;;5.93;;
73650;SDS011;61944;52.538;6.108;2023-12-14T07:47:10;11.80;;;6.85;;
73650;SDS011;61944;52.538;6.108;2023-12-14T07:49:35;10.50;;;6.53;;
73650;SDS011;61944;52.538;6.108;2023-12-14T07:52:02;12.77;;;6.90;;
73650;SDS011;61944;52.538;6.108;2023-12-14T07:54:28;12.60;;;7.60;;
73650;SDS011;61944;52.538;6.108;2023-12-14T07:56:54;11.70;;;6.57;;
73650;SDS011;61944;52.538;6.108;2023-12-14T07:59:19;11.13;;;6.70;;
73650;SDS011;61944;52.538;6.108;2023-12-14T08:01:45;11.05;;;5.82;;
73650;SDS011;61944;52.538;6.108;2023-12-14T08:04:11;13.02;;;6.43;;
73650;SDS011;61944;52.538;6.108;2023-12-14T08:06:36;10.65;;;6.38;;
73650;SDS011;61944;52.538;6.108;2023-12-14T08:09:04;8.75;;;5.95;;
73650;SDS011;61944;52.538;6.108;2023-12-14T08:11:30;12.25;;;6.05;;
73650;SDS011;61944;52.538;6.108;2023-12-14T08:13:56;9.73;;;5.43;;
73650;SDS011;61944;52.538;6.108;2023-12-14T08:16:21;10.23;;;6.10;;
73650;SDS011;61944;52.538;6.108;2023-12-14T08:18:46;12.20;;;6.10;;
73650;SDS011;61944;52.538;6.108;2023-12-14T08:21:13;10.95;;;5.95;;
73650;SDS011;61944;52.538;6.108;2023-12-14T08:23:38;14.23;;;6.47;;
73650;SDS011;61944;52.538;6.108;2023-12-14T08:26:04;11.50;;;6.75;;
73650;SDS011;61944;52.538;6.108;2023-12-14T08:28:29;12.13;;;7.10;;
73650;SDS011;61944;52.538;6.108;2023-12-14T08:30:55;12.63;;;6.40;;
73650;SDS011;61944;52.538;6.108;2023-12-14T08:33:22;10.15;;;6.63;;
73650;SDS011;61944;52.538;6.108;2023-12-14T08:35:48;11.98;;;6.80;;
73650;SDS011;61944;52.538;6.108;2023-12-14T08:38:14;9.02;;;5.88;;
73650;SDS011;61944;52.538;6.108;2023-12-14T08:40:39;12.25;;;6.90;;
73650;SDS011;61944;52.538;6.108;2023-12-14T08:43:04;15.30;;;6.18;;
73650;SDS011;61944;52.538;6.108;2023-12-14T08:45:30;12.35;;;6.40;;
73650;SDS011;61944;52.538;6.108;2023-12-14T08:47:55;7.60;;;5.57;;
73650;SDS011;61944;52.538;6.108;2023-12-14T08:50:21;8.95;;;6.00;;
73650;SDS011;61944;52.538;6.108;2023-12-14T08:52:46;10.52;;;5.45;;
73650;SDS011;61944;52.538;6.108;2023-12-14T08:55:12;7.53;;;5.15;;
73650;SDS011;61944;52.538;6.108;2023-12-14T08:57:38;9.98;;;5.28;;
73650;SDS011;61944;52.538;6.108;2023-12-14T09:00:03;9.13;;;5.70;;
73650;SDS011;61944;52.538;6.108;2023-12-14T09:02:32;10.52;;;5.57;;
73650;SDS011;61944;52.538;6.108;2023-12-14T09:04:58;7.60;;;4.68;;
73650;SDS011;61944;52.538;6.108;2023-12-14T09:07:23;5.88;;;3.00;;
73650;SDS011;61944;52.538;6.108;2023-12-14T09:09:49;4.55;;;3.70;;
73650;SDS011;61944;52.538;6.108;2023-12-14T09:12:15;8.48;;;4.50;;
73650;SDS011;61944;52.538;6.108;2023-12-14T09:14:40;7.85;;;4.47;;
73650;SDS011;61944;52.538;6.108;2023-12-14T09:17:05;6.68;;;4.25;;
73650;SDS011;61944;52.538;6.108;2023-12-14T09:19:31;6.15;;;4.03;;
73650;SDS011;61944;52.538;6.108;2023-12-14T09:21:57;6.35;;;3.72;;
73650;SDS011;61944;52.538;6.108;2023-12-14T09:24:22;8.40;;;4.53;;
73650;SDS011;61944;52.538;6.108;2023-12-14T09:26:48;5.85;;;4.35;;
73650;SDS011;61944;52.538;6.108;2023-12-14T09:29:13;8.85;;;5.05;;
73650;SDS011;61944;52.538;6.108;2023-12-14T09:31:43;7.45;;;4.60;;
73650;SDS011;61944;52.538;6.108;2023-12-14T09:34:09;6.55;;;4.63;;
73650;SDS011;61944;52.538;6.108;2023-12-14T09:36:35;9.77;;;5.40;;
73650;SDS011;61944;52.538;6.108;2023-12-14T09:39:01;13.25;;;5.50;;
73650;SDS011;61944;52.538;6.108;2023-12-14T09:41:27;8.18;;;5.60;;
73650;SDS011;61944;52.538;6.108;2023-12-14T09:43:53;9.48;;;5.45;;
73650;SDS011;61944;52.538;6.108;2023-12-14T09:46:18;9.65;;;5.90;;
73650;SDS011;61944;52.538;6.108;2023-12-14T09:48:45;6.80;;;4.85;;
73650;SDS011;61944;52.538;6.108;2023-12-14T09:51:12;12.75;;;6.13;;
73650;SDS011;61944;52.538;6.108;2023-12-14T09:53:38;8.45;;;5.32;;
73650;SDS011;61944;52.538;6.108;2023-12-14T09:56:03;14.93;;;5.95;;
73650;SDS011;61944;52.538;6.108;2023-12-14T09:58:32;13.95;;;6.28;;
73650;SDS011;61944;52.538;6.108;2023-12-14T10:00:58;10.50;;;5.55;;
73650;SDS011;61944;52.538;6.108;2023-12-14T10:03:26;14.77;;;6.55;;
73650;SDS011;61944;52.538;6.108;2023-12-14T10:05:56;10.55;;;6.07;;
73650;SDS011;61944;52.538;6.108;2023-12-14T10:08:23;13.90;;;6.60;;
73650;SDS011;61944;52.538;6.108;2023-12-14T10:10:50;13.70;;;6.47;;
73650;SDS011;61944;52.538;6.108;2023-12-14T10:13:18;12.02;;;6.93;;
73650;SDS011;61944;52.538;6.108;2023-12-14T10:15:44;11.10;;;6.95;;
73650;SDS011;61944;52.538;6.108;2023-12-14T10:18:11;11.90;;;6.40;;
73650;SDS011;61944;52.538;6.108;2023-12-14T10:20:36;13.90;;;6.82;;
73650;SDS011;61944;52.538;6.108;2023-12-14T10:23:03;12.43;;;5.88;;
73650;SDS011;61944;52.538;6.108;2023-12-14T10:25:30;12.70;;;6.35;;
73650;SDS011;61944;52.538;6.108;2023-12-14T10:27:55;14.13;;;6.43;;
73650;SDS011;61944;52.538;6.108;2023-12-14T10:30:22;13.43;;;5.93;;
73650;SDS011;61944;52.538;6.108;2023-12-14T10:32:47;12.00;;;6.50;;
73650;SDS011;61944;52.538;6.108;2023-12-14T10:35:14;13.38;;;7.53;;
73650;SDS011;61944;52.538;6.108;2023-12-14T10:37:41;14.02;;;7.70;;
73650;SDS011;61944;52.538;6.108;2023-12-14T10:40:08;16.45;;;8.15;;
73650;SDS011;61944;52.538;6.108;2023-12-14T10:42:38;11.65;;;6.32;;
73650;SDS011;61944;52.538;6.108;2023-12-14T10:45:07;15.18;;;8.32;;
73650;SDS011;61944;52.538;6.108;2023-12-14T10:47:35;12.65;;;6.43;;
73650;SDS011;61944;52.538;6.108;2023-12-14T10:50:04;15.73;;;7.03;;
73650;SDS011;61944;52.538;6.108;2023-12-14T10:52:30;11.88;;;7.55;;
73650;SDS011;61944;52.538;6.108;2023-12-14T10:55:02;18.02;;;7.43;;
73650;SDS011;61944;52.538;6.108;2023-12-14T10:57:32;12.23;;;6.22;;
73650;SDS011;61944;52.538;6.108;2023-12-14T10:59:59;15.95;;;6.88;;
73650;SDS011;61944;52.538;6.108;2023-12-14T11:02:26;13.63;;;7.32;;
73650;SDS011;61944;52.538;6.108;2023-12-14T11:04:56;14.65;;;6.47;;
73650;SDS011;61944;52.538;6.108;2023-12-14T11:10:08;12.32;;;5.88;;
73650;SDS011;61944;52.538;6.108;2023-12-14T11:12:34;12.13;;;7.30;;
73650;SDS011;61944;52.538;6.108;2023-12-14T11:14:59;14.05;;;7.10;;
73650;SDS011;61944;52.538;6.108;2023-12-14T11:17:25;15.20;;;6.70;;
73650;SDS011;61944;52.538;6.108;2023-12-14T11:19:50;14.48;;;8.52;;
73650;SDS011;61944;52.538;6.108;2023-12-14T11:22:26;13.40;;;7.53;;
73650;SDS011;61944;52.538;6.108;2023-12-14T11:24:55;12.65;;;8.38;;
73650;SDS011;61944;52.538;6.108;2023-12-14T11:27:28;16.60;;;7.45;;
73650;SDS011;61944;52.538;6.108;2023-12-14T11:29:54;13.85;;;6.55;;
73650;SDS011;61944;52.538;6.108;2023-12-14T11:32:21;12.82;;;6.88;;
73650;SDS011;61944;52.538;6.108;2023-12-14T11:34:46;21.08;;;6.85;;
73650;SDS011;61944;52.538;6.108;2023-12-14T11:37:12;12.20;;;7.15;;
73650;SDS011;61944;52.538;6.108;2023-12-14T11:39:37;16.30;;;7.32;;
73650;SDS011;61944;52.538;6.108;2023-12-14T11:42:04;12.40;;;7.45;;
73650;SDS011;61944;52.538;6.108;2023-12-14T11:44:31;17.23;;;7.40;;
73650;SDS011;61944;52.538;6.108;2023-12-14T11:46:57;14.32;;;7.03;;
73650;SDS011;61944;52.538;6.108;2023-12-14T11:49:25;9.85;;;6.22;;
73650;SDS011;61944;52.538;6.108;2023-12-14T11:51:52;11.80;;;7.13;;
73650;SDS011;61944;52.538;6.108;2023-12-14T11:54:18;14.30;;;7.72;;
73650;SDS011;61944;52.538;6.108;2023-12-14T11:56:48;9.85;;;6.32;;
73650;SDS011;61944;52.538;6.108;2023-12-14T11:59:15;11.13;;;6.45;;
73650;SDS011;61944;52.538;6.108;2023-12-14T12:01:53;11.30;;;5.38;;
73650;SDS011;61944;52.538;6.108;2023-12-14T12:04:27;10.32;;;6.25;;
73650;SDS011;61944;52.538;6.108;2023-12-14T12:07:03;12.73;;;6.25;;
73650;SDS011;61944;52.538;6.108;2023-12-14T12:09:36;13.50;;;6.13;;
73650;SDS011;61944;52.538;6.108;2023-12-14T12:12:09;11.23;;;5.80;;
73650;SDS011;61944;52.538;6.108;2023-12-14T12:14:37;9.60;;;5.45;;
73650;SDS011;61944;52.538;6.108;2023-12-14T12:17:04;9.05;;;5.55;;
73650;SDS011;61944;52.538;6.108;2023-12-14T12:19:31;11.07;;;5.75;;
73650;SDS011;61944;52.538;6.108;2023-12-14T12:22:00;10.63;;;5.85;;
73650;SDS011;61944;52.538;6.108;2023-12-14T12:24:26;13.20;;;5.30;;
73650;SDS011;61944;52.538;6.108;2023-12-14T12:26:51;11.52;;;5.50;;
73650;SDS011;61944;52.538;6.108;2023-12-14T12:29:16;7.25;;;5.03;;
73650;SDS011;61944;52.538;6.108;2023-12-14T12:31:41;8.90;;;5.57;;
73650;SDS011;61944;52.538;6.108;2023-12-14T12:34:08;11.25;;;5.45;;
73650;SDS011;61944;52.538;6.108;2023-12-14T12:36:33;12.07;;;5.60;;
73650;SDS011;61944;52.538;6.108;2023-12-14T12:38:59;11.48;;;5.90;;
73650;SDS011;61944;52.538;6.108;2023-12-14T12:41:24;7.90;;;5.43;;
73650;SDS011;61944;52.538;6.108;2023-12-14T12:43:49;10.10;;;5.40;;
73650;SDS011;61944;52.538;6.108;2023-12-14T12:46:15;9.27;;;4.90;;
73650;SDS011;61944;52.538;6.108;2023-12-14T12:48:40;9.55;;;5.93;;
73650;SDS011;61944;52.538;6.108;2023-12-14T12:51:05;9.45;;;5.25;;
73650;SDS011;61944;52.538;6.108;2023-12-14T12:53:31;12.98;;;6.68;;
73650;SDS011;61944;52.538;6.108;2023-12-14T12:55:58;9.43;;;5.70;;
73650;SDS011;61944;52.538;6.108;2023-12-14T12:58:23;13.15;;;6.20;;
73650;SDS011;61944;52.538;6.108;2023-12-14T13:00:49;11.10;;;6.20;;
73650;SDS011;61944;52.538;6.108;2023-12-14T13:03:14;10.95;;;6.60;;
73650;SDS011;61944;52.538;6.108;2023-12-14T13:05:39;10.07;;;6.18;;
73650;SDS011;61944;52.538;6.108;2023-12-14T13:08:05;11.35;;;6.05;;
73650;SDS011;61944;52.538;6.108;2023-12-14T13:10:30;11.85;;;6.03;;
73650;SDS011;61944;52.538;6.108;2023-12-14T13:12:55;10.50;;;6.20;;
73650;SDS011;61944;52.538;6.108;2023-12-14T13:15:24;16.52;;;6.78;;
73650;SDS011;61944;52.538;6.108;2023-12-14T13:17:51;11.77;;;6.57;;
73650;SDS011;61944;52.538;6.108;2023-12-14T13:20:17;12.50;;;6.53;;
73650;SDS011;61944;52.538;6.108;2023-12-14T13:22:43;14.05;;;6.53;;
73650;SDS011;61944;52.538;6.108;2023-12-14T13:25:09;11.98;;;6.50;;
73650;SDS011;61944;52.538;6.108;2023-12-14T13:27:34;13.05;;;6.53;;
73650;SDS011;61944;52.538;6.108;2023-12-14T13:30:01;13.75;;;7.53;;
73650;SDS011;61944;52.538;6.108;2023-12-14T13:32:27;13.50;;;7.65;;
73650;SDS011;61944;52.538;6.108;2023-12-14T13:34:53;10.93;;;7.40;;
73650;SDS011;61944;52.538;6.108;2023-12-14T13:37:18;11.60;;;6.68;;
73650;SDS011;61944;52.538;6.108;2023-12-14T13:39:43;15.90;;;6.90;;
73650;SDS011;61944;52.538;6.108;2023-12-14T13:42:09;10.82;;;6.60;;
73650;SDS011;61944;52.538;6.108;2023-12-14T13:44:34;13.23;;;7.20;;
73650;SDS011;61944;52.538;6.108;2023-12-14T13:47:01;13.32;;;7.72;;
73650;SDS011;61944;52.538;6.108;2023-12-14T13:49:29;13.50;;;6.88;;
73650;SDS011;61944;52.538;6.108;2023-12-14T13:51:55;13.38;;;6.53;;
73650;SDS011;61944;52.538;6.108;2023-12-14T13:54:20;13.48;;;6.78;;
73650;SDS011;61944;52.538;6.108;2023-12-14T13:56:45;14.45;;;7.40;;
73650;SDS011;61944;52.538;6.108;2023-12-14T13:59:11;14.85;;;7.20;;
73650;SDS011;61944;52.538;6.108;2023-12-14T14:01:36;13.52;;;7.35;;
73650;SDS011;61944;52.538;6.108;2023-12-14T14:04:02;12.00;;;6.78;;
73650;SDS011;61944;52.538;6.108;2023-12-14T14:06:28;9.88;;;6.72;;
73650;SDS011;61944;52.538;6.108;2023-12-14T14:08:53;11.77;;;6.53;;
73650;SDS011;61944;52.538;6.108;2023-12-14T14:11:20;14.60;;;7.47;;
73650;SDS011;61944;52.538;6.108;2023-12-14T14:13:47;11.95;;;6.82;;
73650;SDS011;61944;52.538;6.108;2023-12-14T14:16:12;10.60;;;6.30;;
73650;SDS011;61944;52.538;6.108;2023-12-14T14:18:38;11.38;;;6.70;;
73650;SDS011;61944;52.538;6.108;2023-12-14T14:21:03;11.77;;;6.72;;
73650;SDS011;61944;52.538;6.108;2023-12-14T14:23:32;10.80;;;7.13;;
73650;SDS011;61944;52.538;6.108;2023-12-14T14:25:58;10.50;;;6.70;;
73650;SDS011;61944;52.538;6.108;2023-12-14T14:28:23;12.00;;;5.95;;
73650;SDS011;61944;52.538;6.108;2023-12-14T14:30:48;12.95;;;7.63;;
73650;SDS011;61944;52.538;6.108;2023-12-14T14:33:14;15.80;;;6.70;;
73650;SDS011;61944;52.538;6.108;2023-12-14T14:35:46;11.10;;;6.57;;
73650;SDS011;61944;52.538;6.108;2023-12-14T14:38:12;13.32;;;6.93;;
73650;SDS011;61944;52.538;6.108;2023-12-14T14:40:39;12.10;;;6.38;;
73650;SDS011;61944;52.538;6.108;2023-12-14T14:43:05;13.77;;;7.68;;
73650;SDS011;61944;52.538;6.108;2023-12-14T14:45:30;12.35;;;6.97;;
73650;SDS011;61944;52.538;6.108;2023-12-14T14:47:56;11.13;;;6.20;;
73650;SDS011;61944;52.538;6.108;2023-12-14T14:50:21;11.02;;;6.30;;
73650;SDS011;61944;52.538;6.108;2023-12-14T14:52:47;11.10;;;5.95;;
73650;SDS011;61944;52.538;6.108;2023-12-14T14:55:13;12.68;;;6.85;;
73650;SDS011;61944;52.538;6.108;2023-12-14T14:57:39;12.30;;;5.97;;
73650;SDS011;61944;52.538;6.108;2023-12-14T15:00:04;10.05;;;6.07;;
73650;SDS011;61944;52.538;6.108;2023-12-14T15:02:31;14.10;;;7.28;;
73650;SDS011;61944;52.538;6.108;2023-12-14T15:04:56;12.23;;;6.38;;
73650;SDS011;61944;52.538;6.108;2023-12-14T15:07:21;12.50;;;7.20;;
73650;SDS011;61944;52.538;6.108;2023-12-14T15:09:47;13.65;;;6.97;;
73650;SDS011;61944;52.538;6.108;2023-12-14T15:12:12;10.95;;;6.35;;
73650;SDS011;61944;52.538;6.108;2023-12-14T15:14:38;13.38;;;7.40;;
73650;SDS011;61944;52.538;6.108;2023-12-14T15:17:03;12.52;;;7.18;;
73650;SDS011;61944;52.538;6.108;2023-12-14T15:19:28;12.00;;;5.95;;
73650;SDS011;61944;52.538;6.108;2023-12-14T15:21:54;12.68;;;7.32;;
73650;SDS011;61944;52.538;6.108;2023-12-14T15:24:19;10.48;;;7.32;;
73650;SDS011;61944;52.538;6.108;2023-12-14T15:26:45;12.38;;;7.07;;
73650;SDS011;61944;52.538;6.108;2023-12-14T15:29:10;12.70;;;6.68;;
73650;SDS011;61944;52.538;6.108;2023-12-14T15:31:36;14.82;;;6.72;;
73650;SDS011;61944;52.538;6.108;2023-12-14T15:34:01;12.13;;;6.55;;
73650;SDS011;61944;52.538;6.108;2023-12-14T15:36:27;15.38;;;7.43;;
73650;SDS011;61944;52.538;6.108;2023-12-14T15:38:52;13.52;;;6.80;;
73650;SDS011;61944;52.538;6.108;2023-12-14T15:41:18;11.60;;;5.88;;
73650;SDS011;61944;52.538;6.108;2023-12-14T15:43:44;12.32;;;6.97;;
73650;SDS011;61944;52.538;6.108;2023-12-14T15:46:09;13.30;;;7.15;;
73650;SDS011;61944;52.538;6.108;2023-12-14T15:48:36;16.38;;;7.78;;
73650;SDS011;61944;52.538;6.108;2023-12-14T15:51:05;14.02;;;8.00;;
73650;SDS011;61944;52.538;6.108;2023-12-14T15:53:31;13.52;;;7.70;;
73650;SDS011;61944;52.538;6.108;2023-12-14T15:55:57;18.17;;;9.73;;
73650;SDS011;61944;52.538;6.108;2023-12-14T15:58:23;15.30;;;7.88;;
73650;SDS011;61944;52.538;6.108;2023-12-14T16:00:49;15.13;;;8.30;;
73650;SDS011;61944;52.538;6.108;2023-12-14T16:03:15;13.93;;;8.15;;
73650;SDS011;61944;52.538;6.108;2023-12-14T16:05:40;13.88;;;6.70;;
73650;SDS011;61944;52.538;6.108;2023-12-14T16:08:05;16.25;;;7.93;;
73650;SDS011;61944;52.538;6.108;2023-12-14T16:10:32;12.68;;;7.25;;
73650;SDS011;61944;52.538;6.108;2023-12-14T16:12:58;14.68;;;7.90;;
73650;SDS011;61944;52.538;6.108;2023-12-14T16:15:24;15.63;;;8.85;;
73650;SDS011;61944;52.538;6.108;2023-12-14T16:17:49;13.10;;;7.95;;
73650;SDS011;61944;52.538;6.108;2023-12-14T16:20:14;14.73;;;7.55;;
73650;SDS011;61944;52.538;6.108;2023-12-14T16:22:41;13.15;;;7.88;;
73650;SDS011;61944;52.538;6.108;2023-12-14T16:25:07;14.75;;;8.10;;
73650;SDS011;61944;52.538;6.108;2023-12-14T16:27:34;13.18;;;7.55;;
73650;SDS011;61944;52.538;6.108;2023-12-14T16:30:00;14.23;;;7.65;;
73650;SDS011;61944;52.538;6.108;2023-12-14T16:32:25;14.43;;;8.05;;
73650;SDS011;61944;52.538;6.108;2023-12-14T16:34:51;14.05;;;9.27;;
73650;SDS011;61944;52.538;6.108;2023-12-14T16:37:17;11.55;;;7.85;;
73650;SDS011;61944;52.538;6.108;2023-12-14T16:39:43;15.15;;;8.00;;
73650;SDS011;61944;52.538;6.108;2023-12-14T16:42:09;14.52;;;8.15;;
73650;SDS011;61944;52.538;6.108;2023-12-14T16:44:34;19.50;;;8.30;;
73650;SDS011;61944;52.538;6.108;2023-12-14T16:47:02;14.93;;;8.30;;
73650;SDS011;61944;52.538;6.108;2023-12-14T16:49:28;14.18;;;8.25;;
73650;SDS011;61944;52.538;6.108;2023-12-14T16:51:53;16.42;;;8.68;;
73650;SDS011;61944;52.538;6.108;2023-12-14T16:54:18;14.50;;;7.35;;
73650;SDS011;61944;52.538;6.108;2023-12-14T16:56:44;16.55;;;9.07;;
73650;SDS011;61944;52.538;6.108;2023-12-14T16:59:09;21.35;;;8.93;;
73650;SDS011;61944;52.538;6.108;2023-12-14T17:01:35;14.75;;;8.05;;
73650;SDS011;61944;52.538;6.108;2023-12-14T17:04:04;12.55;;;7.15;;
73650;SDS011;61944;52.538;6.108;2023-12-14T17:06:30;11.20;;;7.30;;
73650;SDS011;61944;52.538;6.108;2023-12-14T17:08:55;16.25;;;7.57;;
73650;SDS011;61944;52.538;6.108;2023-12-14T17:11:20;14.55;;;9.30;;
73650;SDS011;61944;52.538;6.108;2023-12-14T17:13:46;21.73;;;11.50;;
73650;SDS011;61944;52.538;6.108;2023-12-14T17:16:15;17.95;;;9.85;;
73650;SDS011;61944;52.538;6.108;2023-12-14T17:18:41;17.00;;;8.10;;
73650;SDS011;61944;52.538;6.108;2023-12-14T17:23:50;12.10;;;7.55;;
73650;SDS011;61944;52.538;6.108;2023-12-14T17:26:16;14.80;;;9.00;;
73650;SDS011;61944;52.538;6.108;2023-12-14T17:28:45;13.05;;;8.05;;
73650;SDS011;61944;52.538;6.108;2023-12-14T17:31:12;16.42;;;8.13;;
73650;SDS011;61944;52.538;6.108;2023-12-14T17:33:38;17.05;;;9.45;;
73650;SDS011;61944;52.538;6.108;2023-12-14T17:36:03;16.13;;;8.02;;
73650;SDS011;61944;52.538;6.108;2023-12-14T17:38:30;20.20;;;10.02;;
73650;SDS011;61944;52.538;6.108;2023-12-14T17:40:55;18.30;;;10.48;;
73650;SDS011;61944;52.538;6.108;2023-12-14T17:43:23;15.73;;;9.45;;
73650;SDS011;61944;52.538;6.108;2023-12-14T17:45:48;14.00;;;8.20;;
73650;SDS011;61944;52.538;6.108;2023-12-14T17:48:13;14.77;;;7.60;;
73650;SDS011;61944;52.538;6.108;2023-12-14T17:50:39;14.68;;;7.78;;
73650;SDS011;61944;52.538;6.108;2023-12-14T17:53:04;16.45;;;8.65;;
73650;SDS011;61944;52.538;6.108;2023-12-14T17:55:29;17.27;;;9.13;;
73650;SDS011;61944;52.538;6.108;2023-12-14T17:57:55;13.55;;;8.25;;
73650;SDS011;61944;52.538;6.108;2023-12-14T18:00:21;17.38;;;9.10;;
73650;SDS011;61944;52.538;6.108;2023-12-14T18:02:47;15.52;;;8.95;;
73650;SDS011;61944;52.538;6.108;2023-12-14T18:05:12;19.70;;;10.27;;
73650;SDS011;61944;52.538;6.108;2023-12-14T18:07:38;18.08;;;9.02;;
73650;SDS011;61944;52.538;6.108;2023-12-14T18:10:03;14.32;;;8.60;;
73650;SDS011;61944;52.538;6.108;2023-12-14T18:12:29;20.27;;;10.68;;
73650;SDS011;61944;52.538;6.108;2023-12-14T18:14:54;24.58;;;13.77;;
73650;SDS011;61944;52.538;6.108;2023-12-14T18:17:19;23.30;;;11.38;;
73650;SDS011;61944;52.538;6.108;2023-12-14T18:19:45;18.83;;;9.85;;
73650;SDS011;61944;52.538;6.108;2023-12-14T18:22:10;19.63;;;10.25;;
73650;SDS011;61944;52.538;6.108;2023-12-14T18:24:36;18.45;;;8.90;;
73650;SDS011;61944;52.538;6.108;2023-12-14T18:27:01;16.70;;;9.32;;
73650;SDS011;61944;52.538;6.108;2023-12-14T18:29:27;15.77;;;8.38;;
73650;SDS011;61944;52.538;6.108;2023-12-14T18:31:52;14.25;;;8.15;;
73650;SDS011;61944;52.538;6.108;2023-12-14T18:34:18;18.42;;;9.45;;
73650;SDS011;61944;52.538;6.108;2023-12-14T18:36:43;16.80;;;8.85;;
73650;SDS011;61944;52.538;6.108;2023-12-14T18:39:08;18.50;;;9.45;;
73650;SDS011;61944;52.538;6.108;2023-12-14T18:41:35;17.23;;;10.75;;
73650;SDS011;61944;52.538;6.108;2023-12-14T18:44:00;16.02;;;9.73;;
73650;SDS011;61944;52.538;6.108;2023-12-14T18:46:25;20.58;;;9.93;;
73650;SDS011;61944;52.538;6.108;2023-12-14T18:48:50;21.50;;;10.30;;
73650;SDS011;61944;52.538;6.108;2023-12-14T18:51:16;22.73;;;10.02;;
73650;SDS011;61944;52.538;6.108;2023-12-14T18:53:41;15.20;;;8.48;;
73650;SDS011;61944;52.538;6.108;2023-12-14T18:56:07;19.15;;;11.20;;
73650;SDS011;61944;52.538;6.108;2023-12-14T18:58:32;19.10;;;9.57;;
73650;SDS011;61944;52.538;6.108;2023-12-14T19:00:58;26.65;;;13.90;;
73650;SDS011;61944;52.538;6.108;2023-12-14T19:03:27;21.35;;;11.63;;
73650;SDS011;61944;52.538;6.108;2023-12-14T19:05:52;30.08;;;14.65;;
73650;SDS011;61944;52.538;6.108;2023-12-14T19:08:17;20.77;;;11.38;;
73650;SDS011;61944;52.538;6.108;2023-12-14T19:10:43;23.27;;;11.60;;
73650;SDS011;61944;52.538;6.108;2023-12-14T19:13:09;22.55;;;11.68;;
73650;SDS011;61944;52.538;6.108;2023-12-14T19:15:34;19.23;;;11.35;;
73650;SDS011;61944;52.538;6.108;2023-12-14T19:17:59;23.75;;;11.85;;
73650;SDS011;61944;52.538;6.108;2023-12-14T19:20:25;22.83;;;11.93;;
73650;SDS011;61944;52.538;6.108;2023-12-14T19:22:50;30.95;;;15.80;;
73650;SDS011;61944;52.538;6.108;2023-12-14T19:25:16;35.45;;;17.95;;
73650;SDS011;61944;52.538;6.108;2023-12-14T19:27:41;29.10;;;14.13;;
73650;SDS011;61944;52.538;6.108;2023-12-14T19:30:08;27.98;;;12.85;;
73650;SDS011;61944;52.538;6.108;2023-12-14T19:32:37;25.20;;;11.55;;
73650;SDS011;61944;52.538;6.108;2023-12-14T19:35:05;24.63;;;11.25;;
73650;SDS011;61944;52.538;6.108;2023-12-14T19:37:31;21.98;;;10.88;;
73650;SDS011;61944;52.538;6.108;2023-12-14T19:39:57;21.48;;;11.35;;
73650;SDS011;61944;52.538;6.108;2023-12-14T19:42:23;26.27;;;13.23;;
73650;SDS011;61944;52.538;6.108;2023-12-14T19:44:48;22.88;;;11.70;;
73650;SDS011;61944;52.538;6.108;2023-12-14T19:47:14;20.23;;;10.25;;
73650;SDS011;61944;52.538;6.108;2023-12-14T19:49:39;21.92;;;11.95;;
73650;SDS011;61944;52.538;6.108;2023-12-14T19:52:05;25.77;;;12.18;;
73650;SDS011;61944;52.538;6.108;2023-12-14T19:54:30;26.60;;;13.00;;
73650;SDS011;61944;52.538;6.108;2023-12-14T19:56:56;23.17;;;10.80;;
73650;SDS011;61944;52.538;6.108;2023-12-14T19:59:21;23.25;;;12.02;;
73650;SDS011;61944;52.538;6.108;2023-12-14T20:01:46;25.30;;;11.70;;
73650;SDS011;61944;52.538;6.108;2023-12-14T20:04:12;20.23;;;11.65;;
73650;SDS011;61944;52.538;6.108;2023-12-14T20:06:37;23.20;;;11.75;;
73650;SDS011;61944;52.538;6.108;2023-12-14T20:09:02;25.65;;;12.73;;
73650;SDS011;61944;52.538;6.108;2023-12-14T20:11:28;24.30;;;13.07;;
73650;SDS011;61944;52.538;6.108;2023-12-14T20:13:54;22.23;;;10.48;;
73650;SDS011;61944;52.538;6.108;2023-12-14T20:16:20;21.70;;;11.82;;
73650;SDS011;61944;52.538;6.108;2023-12-14T20:18:46;21.52;;;10.82;;
73650;SDS011;61944;52.538;6.108;2023-12-14T20:21:11;19.85;;;11.10;;